Time;durP1;ratioP1;P1;durP2;ratioP2;P2;SDS_P1;SDS_P2;PMS_P1;PMS_P2;Temp;Humidity;BMP_temperature;BMP_pressure;BME280_temperature;BME280_humidity;BME280_pressure;Samples;Min_cycle;Max_cycle;Signal;HPM_P1;HPM_P2
2022/01/06 00:02:18;;;;;;;13.70;3.40;;;;;;;;;;5030743;28;20230;-69
2022/01/06 00:04:45;;;;;;;8.77;2.33;;;;;;;;;;5030816;28;21028;-69
2022/01/06 00:07:12;;;;;;;13.43;2.73;;;;;;;;;;5028681;28;20234;-69
2022/01/06 00:09:39;;;;;;;9.80;2.27;;;;;;;;;;5030724;28;20234;-69
2022/01/06 00:12:09;;;;;;;11.80;2.87;;;;;;;;;;5029964;28;20799;-69
2022/01/06 00:14:51;;;;;;;10.60;2.53;;;;;;;;;;5029565;28;20210;-69
2022/01/06 00:17:25;;;;;;;9.70;2.67;;;;;;;;;;5029345;28;20603;-69
2022/01/06 00:25:20;;;;;;;9.87;2.30;;;;;;;;;;5029002;28;20246;-69
2022/01/06 00:27:47;;;;;;;14.13;2.90;;;;;;;;;;5026475;28;20235;-69
2022/01/06 00:30:13;;;;;;;10.37;2.40;;;;;;;;;;5028916;28;20574;-69
2022/01/06 00:32:40;;;;;;;8.90;2.10;;;;;;;;;;5027368;28;20225;-69
2022/01/06 00:35:06;;;;;;;8.37;2.40;;;;;;;;;;5030531;28;20208;-69
2022/01/06 00:37:33;;;;;;;8.13;2.37;;;;;;;;;;5031341;28;20281;-69
2022/01/06 00:40:00;;;;;;;11.53;3.10;;;;;;;;;;5030464;28;20226;-69
2022/01/06 00:42:27;;;;;;;10.23;2.03;;;;;;;;;;5030963;28;20261;-69
2022/01/06 00:44:53;;;;;;;8.93;2.00;;;;;;;;;;5029556;28;20730;-69
2022/01/06 00:47:20;;;;;;;7.37;1.97;;;;;;;;;;5028605;28;20235;-69
2022/01/06 00:49:47;;;;;;;11.90;2.03;;;;;;;;;;5030632;28;20429;-69
2022/01/06 00:52:13;;;;;;;10.93;2.67;;;;;;;;;;5029730;28;20213;-69
2022/01/06 00:54:40;;;;;;;8.17;1.93;;;;;;;;;;5030007;28;20834;-69
2022/01/06 00:57:08;;;;;;;8.30;1.70;;;;;;;;;;5028509;28;20207;-69
2022/01/06 00:59:34;;;;;;;8.50;2.13;;;;;;;;;;5027372;28;21345;-69
2022/01/06 01:02:01;;;;;;;7.07;1.90;;;;;;;;;;5027978;28;20223;-69
2022/01/06 01:04:27;;;;;;;7.77;1.80;;;;;;;;;;5027818;28;20638;-69
2022/01/06 01:06:53;;;;;;;10.83;1.93;;;;;;;;;;5027274;28;20728;-69
2022/01/06 01:09:20;;;;;;;5.60;1.43;;;;;;;;;;5027945;28;20694;-69
2022/01/06 01:11:46;;;;;;;7.93;1.27;;;;;;;;;;5027919;28;20250;-69
2022/01/06 01:14:22;;;;;;;8.13;1.50;;;;;;;;;;5026846;28;20242;-69
2022/01/06 01:16:54;;;;;;;9.83;1.33;;;;;;;;;;5028660;28;20218;-69
2022/01/06 01:19:21;;;;;;;8.30;1.40;;;;;;;;;;5028423;28;20213;-68
2022/01/06 01:21:48;;;;;;;6.80;1.83;;;;;;;;;;5028665;28;20261;-69
2022/01/06 01:24:15;;;;;;;10.37;2.20;;;;;;;;;;5029713;28;20548;-69
2022/01/06 01:26:41;;;;;;;8.73;1.67;;;;;;;;;;5027689;28;20227;-69
2022/01/06 01:29:13;;;;;;;9.10;1.73;;;;;;;;;;5028358;28;20231;-69
2022/01/06 01:31:44;;;;;;;8.50;1.80;;;;;;;;;;5027978;28;20728;-69
2022/01/06 01:34:12;;;;;;;5.60;1.30;;;;;;;;;;5028486;28;20215;-69
2022/01/06 01:36:39;;;;;;;6.70;1.93;;;;;;;;;;5027929;28;20264;-69
2022/01/06 01:39:06;;;;;;;3.17;0.90;;;;;;;;;;5027967;28;20211;-69
2022/01/06 01:41:33;;;;;;;5.33;1.43;;;;;;;;;;5027588;28;20791;-69
2022/01/06 01:43:59;;;;;;;4.20;1.00;;;;;;;;;;5027328;28;20238;-69
2022/01/06 01:46:29;;;;;;;4.17;1.10;;;;;;;;;;5029173;28;20297;-69
2022/01/06 01:49:14;;;;;;;4.73;1.37;;;;;;;;;;5028855;28;20235;-69
2022/01/06 01:51:40;;;;;;;8.53;2.07;;;;;;;;;;5028494;28;20207;-69
2022/01/06 01:54:07;;;;;;;8.37;1.80;;;;;;;;;;5026658;28;20276;-69
2022/01/06 01:56:34;;;;;;;8.47;1.60;;;;;;;;;;5028959;28;20605;-69
2022/01/06 01:59:00;;;;;;;9.97;2.30;;;;;;;;;;5028936;28;20803;-69
2022/01/06 02:01:27;;;;;;;7.50;2.00;;;;;;;;;;5028518;28;20629;-69
2022/01/06 02:03:53;;;;;;;5.43;1.80;;;;;;;;;;5028739;28;20616;-69
2022/01/06 02:06:22;;;;;;;5.10;1.90;;;;;;;;;;5028149;28;20223;-69
2022/01/06 02:08:51;;;;;;;10.47;2.70;;;;;;;;;;5027010;28;20238;-69
2022/01/06 02:11:17;;;;;;;12.10;2.37;;;;;;;;;;5028930;28;20910;-69
2022/01/06 02:13:46;;;;;;;7.87;2.67;;;;;;;;;;5025455;28;20688;-69
2022/01/06 02:16:12;;;;;;;9.03;2.67;;;;;;;;;;5028389;28;20267;-69
2022/01/06 02:18:38;;;;;;;5.97;2.10;;;;;;;;;;5027803;28;20237;-69
2022/01/06 02:21:06;;;;;;;8.10;2.80;;;;;;;;;;5027114;28;20289;-69
2022/01/06 02:23:33;;;;;;;6.90;1.77;;;;;;;;;;5026332;28;20285;-69
2022/01/06 02:25:59;;;;;;;8.23;2.07;;;;;;;;;;5027137;28;20250;-69
2022/01/06 02:28:25;;;;;;;11.50;2.50;;;;;;;;;;5026260;28;20716;-69
2022/01/06 02:30:54;;;;;;;9.20;2.43;;;;;;;;;;5026790;28;20643;-69
2022/01/06 02:33:21;;;;;;;6.47;1.87;;;;;;;;;;5028402;28;20259;-69
2022/01/06 02:35:48;;;;;;;7.70;2.00;;;;;;;;;;5026840;28;20636;-69
2022/01/06 02:38:16;;;;;;;7.13;1.37;;;;;;;;;;5027061;28;20584;-69
2022/01/06 02:40:43;;;;;;;11.00;2.33;;;;;;;;;;5027454;28;20340;-69
2022/01/06 02:43:09;;;;;;;6.00;1.70;;;;;;;;;;5027847;28;20269;-69
2022/01/06 02:45:36;;;;;;;6.10;1.60;;;;;;;;;;5027485;28;20283;-69
2022/01/06 02:48:08;;;;;;;8.33;1.80;;;;;;;;;;5028347;28;20235;-69
2022/01/06 02:50:36;;;;;;;6.70;1.40;;;;;;;;;;5029542;28;20221;-69
2022/01/06 02:53:02;;;;;;;6.20;1.40;;;;;;;;;;5030668;28;20622;-69
2022/01/06 02:55:30;;;;;;;6.47;1.63;;;;;;;;;;5031342;28;20229;-69
2022/01/06 02:57:56;;;;;;;5.93;1.50;;;;;;;;;;5031341;28;20211;-69
2022/01/06 03:00:23;;;;;;;7.30;1.70;;;;;;;;;;5032651;28;20892;-69
2022/01/06 03:02:49;;;;;;;4.57;1.33;;;;;;;;;;5029998;28;20238;-69
2022/01/06 03:05:17;;;;;;;9.30;2.23;;;;;;;;;;5030630;28;20385;-69
2022/01/06 03:07:44;;;;;;;10.10;1.67;;;;;;;;;;5030713;28;20233;-69
2022/01/06 03:10:14;;;;;;;9.07;1.60;;;;;;;;;;5030322;28;20302;-69
2022/01/06 03:12:43;;;;;;;6.73;1.70;;;;;;;;;;5033503;28;20299;-69
2022/01/06 03:15:11;;;;;;;7.33;1.67;;;;;;;;;;5030956;28;20361;-69
2022/01/06 03:17:39;;;;;;;6.23;1.40;;;;;;;;;;5030956;28;20237;-69
2022/01/06 03:20:09;;;;;;;6.97;2.03;;;;;;;;;;5031092;28;20285;-69
2022/01/06 03:22:36;;;;;;;8.63;1.37;;;;;;;;;;5030896;28;20812;-69
2022/01/06 03:25:03;;;;;;;6.03;1.33;;;;;;;;;;5031317;28;20503;-69
2022/01/06 03:27:30;;;;;;;10.17;1.83;;;;;;;;;;5031097;28;20219;-69
2022/01/06 03:29:57;;;;;;;10.23;1.87;;;;;;;;;;5030308;28;20234;-69
2022/01/06 03:32:24;;;;;;;6.07;1.50;;;;;;;;;;5030729;28;20234;-69
2022/01/06 03:34:50;;;;;;;8.03;1.70;;;;;;;;;;5030962;28;20730;-69
2022/01/06 03:37:17;;;;;;;8.27;2.20;;;;;;;;;;5030541;28;20781;-69
2022/01/06 03:39:45;;;;;;;9.97;1.93;;;;;;;;;;5029153;28;20211;-69
2022/01/06 03:42:11;;;;;;;6.67;1.40;;;;;;;;;;5031586;28;20272;-69
2022/01/06 03:44:38;;;;;;;11.60;2.30;;;;;;;;;;5029519;28;20858;-69
2022/01/06 03:47:07;;;;;;;7.33;1.90;;;;;;;;;;5031748;28;20587;-69
2022/01/06 03:49:33;;;;;;;13.73;2.70;;;;;;;;;;5030829;28;20231;-69
2022/01/06 03:52:00;;;;;;;9.70;1.43;;;;;;;;;;5030175;28;21199;-69
2022/01/06 03:54:26;;;;;;;8.53;2.40;;;;;;;;;;5030873;28;20215;-69
2022/01/06 03:56:53;;;;;;;8.87;1.63;;;;;;;;;;5030993;28;20231;-67
2022/01/06 03:59:20;;;;;;;9.30;1.97;;;;;;;;;;5030286;28;20212;-67
2022/01/06 04:01:47;;;;;;;11.90;2.27;;;;;;;;;;5030804;28;20223;-67
2022/01/06 04:04:14;;;;;;;10.87;2.37;;;;;;;;;;5031378;28;20207;-67
2022/01/06 04:06:41;;;;;;;14.57;2.50;;;;;;;;;;5031038;28;20208;-68
2022/01/06 04:09:08;;;;;;;10.13;2.67;;;;;;;;;;5028265;28;20733;-68
2022/01/06 04:11:35;;;;;;;10.77;2.37;;;;;;;;;;5030110;28;20801;-67
2022/01/06 04:14:01;;;;;;;12.20;2.30;;;;;;;;;;5030092;28;20336;-67
2022/01/06 04:16:29;;;;;;;11.63;1.90;;;;;;;;;;5030124;28;20226;-67
2022/01/06 04:18:56;;;;;;;8.20;2.33;;;;;;;;;;5030029;28;20218;-67
2022/01/06 04:21:23;;;;;;;12.30;1.97;;;;;;;;;;5030296;28;20215;-68
2022/01/06 04:23:50;;;;;;;15.43;2.40;;;;;;;;;;5028865;28;20214;-67
2022/01/06 04:26:17;;;;;;;9.57;2.40;;;;;;;;;;5030398;28;20576;-68
2022/01/06 04:28:43;;;;;;;11.60;2.07;;;;;;;;;;5029393;28;20585;-68
2022/01/06 04:31:10;;;;;;;14.60;2.13;;;;;;;;;;5028303;28;21201;-68
2022/01/06 04:33:36;;;;;;;7.30;1.97;;;;;;;;;;5030495;28;20218;-68
2022/01/06 04:36:04;;;;;;;10.27;2.10;;;;;;;;;;5028831;28;20218;-68
2022/01/06 04:38:33;;;;;;;13.83;2.23;;;;;;;;;;5029523;28;21092;-68
2022/01/06 04:40:59;;;;;;;13.17;2.17;;;;;;;;;;5028618;28;20227;-67
2022/01/06 04:43:26;;;;;;;11.53;2.30;;;;;;;;;;5029722;28;20244;-67
2022/01/06 04:45:53;;;;;;;12.30;2.20;;;;;;;;;;5029507;28;20277;-67
2022/01/06 04:48:19;;;;;;;13.00;2.30;;;;;;;;;;5029020;28;20281;-67
2022/01/06 04:50:46;;;;;;;11.40;2.63;;;;;;;;;;5030182;28;20214;-67
2022/01/06 04:53:12;;;;;;;7.67;1.50;;;;;;;;;;5029591;28;20746;-67
2022/01/06 04:55:40;;;;;;;8.73;2.10;;;;;;;;;;5030099;28;20230;-67
2022/01/06 04:58:06;;;;;;;10.87;2.53;;;;;;;;;;5029207;28;20554;-68
2022/01/06 05:00:33;;;;;;;17.10;2.00;;;;;;;;;;5029755;28;20218;-68
2022/01/06 05:02:59;;;;;;;14.30;2.00;;;;;;;;;;5029780;28;20226;-69
2022/01/06 05:05:25;;;;;;;11.50;2.03;;;;;;;;;;5029506;28;20211;-68
2022/01/06 05:07:52;;;;;;;11.33;2.20;;;;;;;;;;5027755;28;20215;-68
2022/01/06 05:10:18;;;;;;;10.93;2.23;;;;;;;;;;5028854;28;20238;-68
2022/01/06 05:12:46;;;;;;;13.53;2.70;;;;;;;;;;5028976;28;20865;-69
2022/01/06 05:15:14;;;;;;;13.57;2.30;;;;;;;;;;5030153;28;20222;-69
2022/01/06 05:17:41;;;;;;;14.73;2.00;;;;;;;;;;5028984;28;20663;-69
2022/01/06 05:20:08;;;;;;;14.43;2.20;;;;;;;;;;5030569;28;20261;-69
2022/01/06 05:22:41;;;;;;;8.53;1.93;;;;;;;;;;5027668;28;20644;-69
2022/01/06 05:25:08;;;;;;;9.00;2.23;;;;;;;;;;5029646;28;20222;-69
2022/01/06 05:27:35;;;;;;;10.67;2.13;;;;;;;;;;5026907;28;20560;-69
2022/01/06 05:30:03;;;;;;;7.67;2.33;;;;;;;;;;5028464;28;20277;-69
2022/01/06 05:32:29;;;;;;;10.57;2.63;;;;;;;;;;5028577;28;20639;-74
2022/01/06 05:34:56;;;;;;;14.93;1.90;;;;;;;;;;5028708;28;20678;-74
2022/01/06 05:37:22;;;;;;;9.47;2.00;;;;;;;;;;5028742;28;20639;-74
2022/01/06 05:39:49;;;;;;;8.07;2.33;;;;;;;;;;5027748;28;20649;-74
2022/01/06 05:42:15;;;;;;;14.80;2.37;;;;;;;;;;5028717;28;20218;-75
2022/01/06 05:44:42;;;;;;;9.70;2.07;;;;;;;;;;5029827;28;20229;-75
2022/01/06 05:47:10;;;;;;;12.03;2.27;;;;;;;;;;5026258;28;20364;-74
2022/01/06 05:49:36;;;;;;;12.03;2.50;;;;;;;;;;5029913;28;20280;-74
2022/01/06 05:52:03;;;;;;;14.57;1.87;;;;;;;;;;5028948;28;20226;-74
2022/01/06 05:54:30;;;;;;;12.40;2.43;;;;;;;;;;5027090;28;20211;-75
2022/01/06 05:56:56;;;;;;;11.80;1.77;;;;;;;;;;5029423;28;20320;-74
2022/01/06 05:59:23;;;;;;;12.90;2.20;;;;;;;;;;5027989;28;20689;-75
2022/01/06 06:01:49;;;;;;;19.63;2.60;;;;;;;;;;5028535;28;20329;-75
2022/01/06 06:04:17;;;;;;;11.13;2.13;;;;;;;;;;5028672;28;20569;-75
2022/01/06 06:06:43;;;;;;;17.23;2.40;;;;;;;;;;5028924;28;20230;-75
2022/01/06 06:09:10;;;;;;;10.07;2.10;;;;;;;;;;5027111;28;20235;-75
2022/01/06 06:11:36;;;;;;;12.00;2.23;;;;;;;;;;5029025;28;20630;-75
2022/01/06 06:14:02;;;;;;;11.83;2.20;;;;;;;;;;5029199;28;20268;-75
2022/01/06 06:16:29;;;;;;;9.77;2.20;;;;;;;;;;5029417;28;20288;-75
2022/01/06 06:18:55;;;;;;;12.83;2.57;;;;;;;;;;5029483;28;20265;-75
2022/01/06 06:21:23;;;;;;;13.67;2.13;;;;;;;;;;5030348;28;20215;-74
2022/01/06 06:23:51;;;;;;;9.83;2.20;;;;;;;;;;5028058;28;20780;-76
2022/01/06 06:26:17;;;;;;;10.20;2.10;;;;;;;;;;5027555;28;21216;-75
2022/01/06 06:28:44;;;;;;;11.30;2.07;;;;;;;;;;5027969;28;20628;-75
2022/01/06 06:31:11;;;;;;;9.93;2.37;;;;;;;;;;5028296;28;20214;-75
2022/01/06 06:33:37;;;;;;;14.60;2.40;;;;;;;;;;5029069;28;21023;-75
2022/01/06 06:36:04;;;;;;;8.93;2.03;;;;;;;;;;5027825;28;20218;-75
2022/01/06 06:38:34;;;;;;;7.30;2.00;;;;;;;;;;5027455;28;20214;-75
2022/01/06 06:41:00;;;;;;;19.77;2.93;;;;;;;;;;5027189;28;20222;-75
2022/01/06 06:43:26;;;;;;;14.50;2.60;;;;;;;;;;5028021;28;20579;-75
2022/01/06 06:45:53;;;;;;;9.93;2.10;;;;;;;;;;5028140;28;20203;-75
2022/01/06 06:48:19;;;;;;;14.40;3.37;;;;;;;;;;5027789;28;20230;-75
2022/01/06 06:50:46;;;;;;;18.70;2.90;;;;;;;;;;5026222;28;20296;-75
2022/01/06 06:53:12;;;;;;;11.30;2.20;;;;;;;;;;5027897;28;20210;-75
2022/01/06 06:55:40;;;;;;;8.90;1.73;;;;;;;;;;5026403;28;20223;-75
2022/01/06 06:58:06;;;;;;;9.80;1.80;;;;;;;;;;5028935;28;20237;-75
2022/01/06 07:00:33;;;;;;;10.43;2.30;;;;;;;;;;5027496;28;20279;-75
2022/01/06 07:02:59;;;;;;;15.00;3.00;;;;;;;;;;5026407;28;20874;-75
2022/01/06 07:05:26;;;;;;;11.30;2.30;;;;;;;;;;5028493;28;20550;-75
2022/01/06 07:07:52;;;;;;;21.33;2.53;;;;;;;;;;5027263;28;20216;-75
2022/01/06 07:10:19;;;;;;;13.90;2.33;;;;;;;;;;5025568;28;20309;-75
2022/01/06 07:12:47;;;;;;;9.87;2.77;;;;;;;;;;5026994;28;20328;-75
2022/01/06 07:15:15;;;;;;;11.97;2.73;;;;;;;;;;5025705;28;20572;-75
2022/01/06 07:17:43;;;;;;;14.60;2.00;;;;;;;;;;5026182;28;20223;-75
2022/01/06 07:20:10;;;;;;;13.40;2.17;;;;;;;;;;5029053;28;20265;-75
2022/01/06 07:22:37;;;;;;;8.50;2.30;;;;;;;;;;5028383;28;20211;-76
2022/01/06 07:25:05;;;;;;;15.27;2.90;;;;;;;;;;5026222;28;20231;-75
2022/01/06 07:27:31;;;;;;;14.00;2.50;;;;;;;;;;5027325;28;20576;-75
2022/01/06 07:29:59;;;;;;;11.63;2.20;;;;;;;;;;5026181;28;20620;-75
2022/01/06 07:32:26;;;;;;;12.00;2.50;;;;;;;;;;5021977;28;20230;-75
2022/01/06 07:34:53;;;;;;;11.80;2.40;;;;;;;;;;5024414;28;20709;-75
2022/01/06 07:37:19;;;;;;;13.50;2.33;;;;;;;;;;5028640;28;20731;-75
2022/01/06 07:39:46;;;;;;;9.40;1.97;;;;;;;;;;5028436;28;20351;-75
2022/01/06 07:42:13;;;;;;;10.83;1.90;;;;;;;;;;5030650;28;20508;-75
2022/01/06 07:44:39;;;;;;;10.80;2.37;;;;;;;;;;5029431;28;20301;-75
2022/01/06 07:47:08;;;;;;;14.93;2.80;;;;;;;;;;5029328;28;20226;-75
2022/01/06 07:49:35;;;;;;;10.83;1.90;;;;;;;;;;5028453;28;20262;-73
2022/01/06 07:52:01;;;;;;;13.23;2.27;;;;;;;;;;5029176;28;20214;-74
2022/01/06 07:54:28;;;;;;;14.33;2.20;;;;;;;;;;5028173;28;20219;-74
2022/01/06 07:56:54;;;;;;;8.30;2.40;;;;;;;;;;5028484;28;20210;-75
2022/01/06 07:59:21;;;;;;;13.40;2.53;;;;;;;;;;5027789;28;20211;-75
2022/01/06 08:01:47;;;;;;;8.63;2.20;;;;;;;;;;5027180;28;20255;-75
2022/01/06 08:04:15;;;;;;;10.77;1.93;;;;;;;;;;5026484;28;20207;-75
2022/01/06 08:06:41;;;;;;;10.73;1.90;;;;;;;;;;5026608;28;20800;-75
2022/01/06 08:09:08;;;;;;;11.87;2.23;;;;;;;;;;5027954;28;20673;-76
2022/01/06 08:11:34;;;;;;;15.97;3.67;;;;;;;;;;5026297;28;20234;-75
2022/01/06 08:14:01;;;;;;;11.47;2.47;;;;;;;;;;5025599;28;20544;-75
2022/01/06 08:16:27;;;;;;;13.30;2.60;;;;;;;;;;5027558;28;20223;-75
2022/01/06 08:18:54;;;;;;;14.70;2.37;;;;;;;;;;5027597;28;20253;-75
2022/01/06 08:21:21;;;;;;;11.17;2.13;;;;;;;;;;5026525;28;20215;-75
2022/01/06 08:23:48;;;;;;;17.73;3.57;;;;;;;;;;5028690;28;20718;-75
2022/01/06 08:26:15;;;;;;;13.40;2.80;;;;;;;;;;5026995;28;20235;-74
2022/01/06 08:28:41;;;;;;;9.70;2.27;;;;;;;;;;5028055;28;20266;-75
2022/01/06 08:31:07;;;;;;;13.83;2.80;;;;;;;;;;5026351;28;20233;-75
2022/01/06 08:33:34;;;;;;;10.17;2.33;;;;;;;;;;5028725;28;20207;-74
2022/01/06 08:36:00;;;;;;;13.63;2.57;;;;;;;;;;5027163;28;21323;-75
2022/01/06 08:38:29;;;;;;;12.17;2.70;;;;;;;;;;5028313;28;20215;-75
2022/01/06 08:40:55;;;;;;;8.50;2.23;;;;;;;;;;5027282;28;20416;-75
2022/01/06 08:43:27;;;;;;;10.63;3.23;;;;;;;;;;5025467;28;20739;-75
2022/01/06 08:45:54;;;;;;;10.40;3.20;;;;;;;;;;5027834;28;20231;-77
2022/01/06 08:48:20;;;;;;;10.83;2.13;;;;;;;;;;5024574;28;20231;-75
2022/01/06 08:50:47;;;;;;;13.30;3.07;;;;;;;;;;5028536;28;20235;-75
2022/01/06 08:53:14;;;;;;;12.53;2.57;;;;;;;;;;5026041;28;20653;-75
2022/01/06 08:55:46;;;;;;;11.83;2.37;;;;;;;;;;5026857;28;20723;-75
2022/01/06 08:58:12;;;;;;;14.13;2.27;;;;;;;;;;5027246;28;20235;-75
2022/01/06 09:00:39;;;;;;;12.90;2.10;;;;;;;;;;5027282;28;20687;-75
2022/01/06 09:03:06;;;;;;;13.00;2.50;;;;;;;;;;5027379;28;20532;-75
2022/01/06 09:05:33;;;;;;;9.70;2.00;;;;;;;;;;5027497;28;20575;-75
2022/01/06 09:08:00;;;;;;;13.50;2.23;;;;;;;;;;5027749;28;20215;-75
2022/01/06 09:10:29;;;;;;;11.70;2.67;;;;;;;;;;5028117;28;20781;-75
2022/01/06 09:12:57;;;;;;;14.17;2.80;;;;;;;;;;5026729;28;20241;-75
2022/01/06 09:15:24;;;;;;;13.47;2.70;;;;;;;;;;5028166;28;20216;-75
2022/01/06 09:17:50;;;;;;;15.87;3.00;;;;;;;;;;5024310;28;20328;-75
2022/01/06 09:20:17;;;;;;;12.43;2.17;;;;;;;;;;5026676;28;20222;-75
2022/01/06 09:22:46;;;;;;;14.10;2.47;;;;;;;;;;5026908;28;20208;-75
2022/01/06 09:25:14;;;;;;;14.47;2.83;;;;;;;;;;5026808;28;20234;-75
2022/01/06 09:27:41;;;;;;;12.23;2.13;;;;;;;;;;5027043;28;20211;-75
2022/01/06 09:30:10;;;;;;;14.70;2.60;;;;;;;;;;5026921;28;21003;-75
2022/01/06 09:32:38;;;;;;;8.47;2.37;;;;;;;;;;5026412;28;20280;-75
2022/01/06 09:35:05;;;;;;;12.73;2.40;;;;;;;;;;5026007;28;20320;-75
2022/01/06 09:37:31;;;;;;;9.43;2.20;;;;;;;;;;5027283;28;20216;-75
2022/01/06 09:39:58;;;;;;;12.40;2.20;;;;;;;;;;5025374;28;20223;-75
2022/01/06 09:42:24;;;;;;;10.33;2.10;;;;;;;;;;5027720;28;20678;-75
2022/01/06 09:44:53;;;;;;;13.13;2.50;;;;;;;;;;5029428;28;20289;-75
2022/01/06 09:47:22;;;;;;;7.50;2.43;;;;;;;;;;5027635;28;20255;-75
2022/01/06 09:49:48;;;;;;;9.30;2.60;;;;;;;;;;5025581;28;20888;-75
2022/01/06 09:52:16;;;;;;;14.73;3.23;;;;;;;;;;5027098;28;20211;-75
2022/01/06 09:54:42;;;;;;;12.27;2.30;;;;;;;;;;5028918;28;20701;-75
2022/01/06 09:57:10;;;;;;;9.97;2.47;;;;;;;;;;5028389;28;20203;-75
2022/01/06 09:59:37;;;;;;;10.40;2.30;;;;;;;;;;5027600;28;20213;-76
2022/01/06 10:02:04;;;;;;;14.20;2.57;;;;;;;;;;5029299;28;20218;-76
2022/01/06 10:04:32;;;;;;;10.90;3.40;;;;;;;;;;5027738;28;20208;-76
2022/01/06 10:07:00;;;;;;;13.53;2.53;;;;;;;;;;5027909;28;20213;-75
2022/01/06 10:09:27;;;;;;;10.87;3.27;;;;;;;;;;5026652;28;20238;-76
2022/01/06 10:11:59;;;;;;;16.97;3.47;;;;;;;;;;5028922;28;20288;-77
2022/01/06 10:14:37;;;;;;;13.57;2.90;;;;;;;;;;5028813;28;20222;-76
2022/01/06 10:17:04;;;;;;;11.43;3.30;;;;;;;;;;5026985;28;20235;-76
2022/01/06 10:19:35;;;;;;;12.67;3.00;;;;;;;;;;5027713;28;20234;-76
2022/01/06 10:22:02;;;;;;;12.73;3.43;;;;;;;;;;5027770;28;20210;-76
2022/01/06 10:24:30;;;;;;;16.27;3.87;;;;;;;;;;5028708;28;20212;-76
2022/01/06 10:26:59;;;;;;;13.47;3.30;;;;;;;;;;5026042;28;20215;-76
2022/01/06 10:29:27;;;;;;;11.13;3.03;;;;;;;;;;5029323;28;20843;-76
2022/01/06 10:32:02;;;;;;;12.50;3.43;;;;;;;;;;5026329;28;20246;-76
2022/01/06 10:34:30;;;;;;;14.13;3.37;;;;;;;;;;5027104;28;20696;-76
2022/01/06 10:36:58;;;;;;;12.60;3.57;;;;;;;;;;5028551;28;20214;-75
2022/01/06 10:39:24;;;;;;;15.67;3.90;;;;;;;;;;5026592;28;20207;-75
2022/01/06 10:41:52;;;;;;;10.60;3.83;;;;;;;;;;5026000;28;20223;-75
2022/01/06 10:44:19;;;;;;;13.70;4.07;;;;;;;;;;5027561;28;20212;-75
2022/01/06 10:46:46;;;;;;;10.47;3.37;;;;;;;;;;5025518;28;20233;-75
2022/01/06 10:49:15;;;;;;;13.10;4.17;;;;;;;;;;5027454;28;20216;-75
2022/01/06 10:51:44;;;;;;;14.37;4.60;;;;;;;;;;5026966;28;20300;-75
2022/01/06 10:54:16;;;;;;;14.23;4.53;;;;;;;;;;5027705;28;20205;-74
2022/01/06 10:56:44;;;;;;;11.50;4.53;;;;;;;;;;5028510;28;20236;-74
2022/01/06 10:59:11;;;;;;;13.13;3.87;;;;;;;;;;5027702;28;20224;-74
2022/01/06 11:01:38;;;;;;;8.87;3.67;;;;;;;;;;5028302;28;20227;-73
2022/01/06 11:04:05;;;;;;;16.23;4.03;;;;;;;;;;5026863;28;20214;-75
2022/01/06 11:06:32;;;;;;;10.30;4.23;;;;;;;;;;5028110;28;20214;-74
2022/01/06 11:08:59;;;;;;;13.17;3.30;;;;;;;;;;5026573;28;20265;-76
2022/01/06 11:11:44;;;;;;;13.20;3.47;;;;;;;;;;5029742;28;20706;-75
2022/01/06 11:14:14;;;;;;;9.47;3.43;;;;;;;;;;5030259;28;20329;-76
2022/01/06 11:16:42;;;;;;;9.27;3.13;;;;;;;;;;5031743;28;20668;-75
2022/01/06 11:19:11;;;;;;;14.87;3.80;;;;;;;;;;5031156;28;20246;-75
2022/01/06 11:21:40;;;;;;;11.80;3.73;;;;;;;;;;5032336;28;20647;-74
2022/01/06 11:24:11;;;;;;;14.67;3.63;;;;;;;;;;5030373;28;20208;-75
2022/01/06 11:26:40;;;;;;;10.73;3.57;;;;;;;;;;5026428;28;20653;-75
2022/01/06 11:29:07;;;;;;;9.67;3.27;;;;;;;;;;5031796;28;20238;-75
2022/01/06 11:31:39;;;;;;;11.00;3.40;;;;;;;;;;5030464;28;20231;-75
2022/01/06 11:34:14;;;;;;;10.10;3.27;;;;;;;;;;5031205;28;20307;-75
2022/01/06 11:36:41;;;;;;;10.53;3.73;;;;;;;;;;5028749;28;20216;-75
2022/01/06 11:39:09;;;;;;;13.67;3.50;;;;;;;;;;5029896;28;20215;-75
2022/01/06 11:41:39;;;;;;;13.73;3.50;;;;;;;;;;5031176;28;20703;-75
2022/01/06 11:44:17;;;;;;;13.93;5.00;;;;;;;;;;5032545;28;20204;-75
2022/01/06 11:46:45;;;;;;;11.07;3.83;;;;;;;;;;5030687;28;20225;-75
2022/01/06 11:49:12;;;;;;;13.67;4.70;;;;;;;;;;5030312;28;20259;-75
2022/01/06 11:51:38;;;;;;;12.63;3.67;;;;;;;;;;5030117;28;20534;-75
2022/01/06 11:54:17;;;;;;;14.33;3.37;;;;;;;;;;5030247;28;20213;-75
2022/01/06 11:56:50;;;;;;;9.67;3.60;;;;;;;;;;5032136;28;20220;-75
2022/01/06 11:59:28;;;;;;;9.13;3.27;;;;;;;;;;5028489;28;20653;-74
2022/01/06 12:01:54;;;;;;;6.80;2.60;;;;;;;;;;5030242;28;20245;-75
2022/01/06 12:04:22;;;;;;;13.70;3.40;;;;;;;;;;5027941;28;20211;-76
2022/01/06 12:06:50;;;;;;;11.37;4.00;;;;;;;;;;5028568;28;20468;-75
2022/01/06 12:09:18;;;;;;;9.53;3.20;;;;;;;;;;5029586;28;20232;-75
2022/01/06 12:11:45;;;;;;;7.97;2.53;;;;;;;;;;5029654;28;20240;-75
2022/01/06 12:14:24;;;;;;;10.57;2.93;;;;;;;;;;5028278;28;20704;-76
2022/01/06 12:16:51;;;;;;;8.93;2.60;;;;;;;;;;5028703;28;20253;-76
2022/01/06 12:19:18;;;;;;;6.47;2.90;;;;;;;;;;5029144;28;20229;-75
2022/01/06 12:21:47;;;;;;;13.73;3.37;;;;;;;;;;5029648;28;20248;-75
2022/01/06 12:24:14;;;;;;;12.97;3.03;;;;;;;;;;5029941;28;20207;-75
2022/01/06 12:26:41;;;;;;;7.40;3.00;;;;;;;;;;5028636;28;20228;-75
2022/01/06 12:29:14;;;;;;;5.97;2.87;;;;;;;;;;5029969;28;20211;-76
2022/01/06 12:31:42;;;;;;;8.87;3.50;;;;;;;;;;5030197;28;20590;-75
2022/01/06 12:34:10;;;;;;;11.10;2.47;;;;;;;;;;5030362;28;20671;-75
2022/01/06 12:36:40;;;;;;;10.40;2.50;;;;;;;;;;5029784;28;20334;-75
2022/01/06 12:39:08;;;;;;;12.63;2.87;;;;;;;;;;5028771;28;20215;-75
2022/01/06 12:41:35;;;;;;;6.40;2.30;;;;;;;;;;5028446;28;20226;-75
2022/01/06 12:44:02;;;;;;;7.17;2.70;;;;;;;;;;5028841;28;20331;-76
2022/01/06 12:46:34;;;;;;;13.10;3.67;;;;;;;;;;5029130;28;20224;-75
2022/01/06 12:49:01;;;;;;;5.57;2.23;;;;;;;;;;5028765;28;20207;-75
2022/01/06 12:51:30;;;;;;;8.80;2.13;;;;;;;;;;5029324;28;20242;-75
2022/01/06 12:54:01;;;;;;;9.03;2.07;;;;;;;;;;5029067;28;20210;-76
2022/01/06 12:56:30;;;;;;;8.17;2.40;;;;;;;;;;5028224;28;20846;-76
2022/01/06 12:58:57;;;;;;;7.93;1.90;;;;;;;;;;5028485;28;20796;-75
2022/01/06 13:01:24;;;;;;;12.30;2.17;;;;;;;;;;5027798;28;20239;-76
2022/01/06 13:03:54;;;;;;;9.40;2.90;;;;;;;;;;5029371;28;20273;-76
2022/01/06 13:06:22;;;;;;;5.27;2.07;;;;;;;;;;5028840;28;20331;-75
2022/01/06 13:08:51;;;;;;;6.87;2.07;;;;;;;;;;5029298;28;20278;-75
2022/01/06 13:11:18;;;;;;;6.10;2.20;;;;;;;;;;5028035;28;20231;-76
2022/01/06 13:13:51;;;;;;;8.07;2.43;;;;;;;;;;5026992;28;20609;-76
2022/01/06 13:16:19;;;;;;;8.73;2.73;;;;;;;;;;5028507;28;20247;-75
2022/01/06 13:18:59;;;;;;;6.53;1.93;;;;;;;;;;5027674;28;20285;-77
2022/01/06 13:21:35;;;;;;;8.83;2.30;;;;;;;;;;5028137;28;20203;-76
2022/01/06 13:24:15;;;;;;;7.67;2.20;;;;;;;;;;5028953;28;20234;-76
2022/01/06 13:26:52;;;;;;;7.43;1.90;;;;;;;;;;5028884;28;20597;-76
2022/01/06 13:29:33;;;;;;;7.77;2.40;;;;;;;;;;5027835;28;20225;-76
2022/01/06 13:32:12;;;;;;;6.43;2.40;;;;;;;;;;5027371;28;20282;-76
2022/01/06 13:34:42;;;;;;;6.50;1.80;;;;;;;;;;5026758;28;20212;-76
2022/01/06 13:37:11;;;;;;;9.53;2.33;;;;;;;;;;5027891;28;20349;-76
2022/01/06 13:39:42;;;;;;;6.87;2.10;;;;;;;;;;5028577;28;20318;-76
2022/01/06 13:42:10;;;;;;;7.17;1.97;;;;;;;;;;5028377;28;20268;-76
2022/01/06 13:44:38;;;;;;;9.40;2.10;;;;;;;;;;5028390;28;20352;-76
2022/01/06 13:47:10;;;;;;;7.13;2.10;;;;;;;;;;5027481;28;20304;-76
2022/01/06 13:52:24;;;;;;;7.67;2.40;;;;;;;;;;5027507;28;20230;-76
2022/01/06 13:54:51;;;;;;;6.63;2.10;;;;;;;;;;5028728;28;20257;-76
2022/01/06 13:57:17;;;;;;;9.93;2.63;;;;;;;;;;5026492;28;21021;-76
2022/01/06 13:59:44;;;;;;;8.37;2.37;;;;;;;;;;5026713;28;20257;-76
2022/01/06 14:02:12;;;;;;;9.53;2.43;;;;;;;;;;5026286;28;21102;-76
2022/01/06 14:04:41;;;;;;;7.53;2.67;;;;;;;;;;5027441;28;20203;-77
2022/01/06 14:07:08;;;;;;;13.47;2.43;;;;;;;;;;5027061;28;20227;-76
2022/01/06 14:09:36;;;;;;;6.53;2.27;;;;;;;;;;5026660;28;20804;-77
2022/01/06 14:12:03;;;;;;;7.13;2.57;;;;;;;;;;5026567;28;20224;-76
2022/01/06 14:14:30;;;;;;;9.20;2.60;;;;;;;;;;5028029;28;20685;-76
2022/01/06 14:16:57;;;;;;;9.20;2.40;;;;;;;;;;5027880;28;20234;-77
2022/01/06 14:19:24;;;;;;;8.50;2.50;;;;;;;;;;5026297;28;20211;-76
2022/01/06 14:21:50;;;;;;;10.57;3.33;;;;;;;;;;5027000;28;20769;-76
2022/01/06 14:24:17;;;;;;;16.70;3.63;;;;;;;;;;5024963;28;20219;-76
2022/01/06 14:26:45;;;;;;;8.20;2.87;;;;;;;;;;5027599;28;20219;-76
2022/01/06 14:29:12;;;;;;;12.50;3.00;;;;;;;;;;5026689;28;20305;-76
2022/01/06 14:31:38;;;;;;;5.83;2.80;;;;;;;;;;5027628;28;20716;-76
2022/01/06 14:34:04;;;;;;;8.43;2.97;;;;;;;;;;5026879;28;20693;-76
2022/01/06 14:36:31;;;;;;;6.03;2.80;;;;;;;;;;5026805;28;20214;-76
2022/01/06 14:38:57;;;;;;;9.33;3.27;;;;;;;;;;5027082;28;20218;-76
2022/01/06 14:41:23;;;;;;;8.73;3.10;;;;;;;;;;5026209;28;20226;-77
2022/01/06 14:43:51;;;;;;;10.47;3.50;;;;;;;;;;5026799;28;20296;-76
2022/01/06 14:46:18;;;;;;;10.47;2.83;;;;;;;;;;5030689;28;20551;-77
2022/01/06 14:48:45;;;;;;;9.67;3.67;;;;;;;;;;5031347;28;20211;-76